createdAt,value
2018-12-18T00:00:38.936Z,90.41
2018-12-18T00:01:38.927Z,90.41
2018-12-18T00:02:38.943Z,90.00
2018-12-18T00:03:39.420Z,90.31
2018-12-18T00:04:38.894Z,90.20
2018-12-18T00:05:38.884Z,89.79
2018-12-18T00:06:38.872Z,89.79
2018-12-18T00:07:38.863Z,90.52
2018-12-18T00:08:38.881Z,90.62
2018-12-18T00:09:38.839Z,90.31
2018-12-18T00:10:38.828Z,90.62
2018-12-18T00:11:38.818Z,90.31
2018-12-18T00:12:38.809Z,90.31
2018-12-18T00:13:38.823Z,90.31
2018-12-18T00:14:39.350Z,90.72
2018-12-18T00:15:38.775Z,90.72
2018-12-18T00:16:38.764Z,90.93
2018-12-18T00:17:38.755Z,90.62
2018-12-18T00:18:38.782Z,90.31
2018-12-18T00:19:38.730Z,90.31
2018-12-18T00:20:38.720Z,90.52
2018-12-18T00:21:38.709Z,90.16
2018-12-18T00:22:38.698Z,90.31
2018-12-18T00:23:38.693Z,90.20
2018-12-18T00:24:38.702Z,90.52
2018-12-18T00:25:38.667Z,90.62
2018-12-18T00:26:38.653Z,90.31
2018-12-18T00:27:38.645Z,90.20
2018-12-18T00:28:38.633Z,90.31
2018-12-18T00:29:38.649Z,90.72
2018-12-18T00:30:38.613Z,90.72
2018-12-18T00:31:38.604Z,90.83
2018-12-18T00:32:38.593Z,91.56
2018-12-18T00:33:38.580Z,91.66
2018-12-18T00:34:38.593Z,91.14
2018-12-18T00:35:38.561Z,91.20
2018-12-18T00:36:38.547Z,91.72
2018-12-18T00:37:38.536Z,91.97
2018-12-18T00:38:38.527Z,91.97
2018-12-18T00:39:38.542Z,91.87
2018-12-18T00:40:38.504Z,91.97
2018-12-18T00:41:38.494Z,91.77
2018-12-18T00:42:38.483Z,91.87
2018-12-18T00:43:38.474Z,91.87
2018-12-18T00:44:38.486Z,91.56
2018-12-18T00:45:38.449Z,92.08
2018-12-18T00:46:38.439Z,91.87
2018-12-18T00:47:38.426Z,91.87
2018-12-18T00:48:38.418Z,92.08
2018-12-18T00:49:38.430Z,92.18
2018-12-18T00:50:38.396Z,92.08
2018-12-18T00:51:38.387Z,92.08
2018-12-18T00:52:38.374Z,92.29
2018-12-18T00:53:38.362Z,92.39
2018-12-18T00:54:38.382Z,92.39
2018-12-18T00:55:38.342Z,92.70
2018-12-18T00:56:38.330Z,92.08
2018-12-18T00:57:38.324Z,92.29
2018-12-18T00:58:38.309Z,92.49
2018-12-18T00:59:38.324Z,92.29
2018-12-18T01:00:38.290Z,92.29
2018-12-18T01:01:38.276Z,92.29
2018-12-18T01:02:38.265Z,92.45
2018-12-18T01:03:38.255Z,92.39
2018-12-18T01:04:38.269Z,92.55
2018-12-18T01:05:38.233Z,92.29
2018-12-18T01:06:38.223Z,91.72
2018-12-18T01:07:38.212Z,92.03
2018-12-18T01:08:38.206Z,92.03
2018-12-18T01:09:38.214Z,92.14
2018-12-18T01:10:38.179Z,91.87
2018-12-18T01:11:38.169Z,92.24
2018-12-18T01:12:38.157Z,92.24
2018-12-18T01:13:38.146Z,92.03
2018-12-18T01:14:38.163Z,92.14
2018-12-18T01:15:38.125Z,91.97
2018-12-18T01:16:38.114Z,91.83
2018-12-18T01:17:38.103Z,92.08
2018-12-18T01:18:38.098Z,92.03
2018-12-18T01:19:38.107Z,91.97
2018-12-18T01:20:38.071Z,92.24
2018-12-18T01:21:38.061Z,92.29
2018-12-18T01:22:38.050Z,92.29
2018-12-18T01:23:38.042Z,92.39
2018-12-18T01:24:38.051Z,92.29
2018-12-18T01:25:38.015Z,92.08
2018-12-18T01:26:38.006Z,92.35
2018-12-18T01:27:37.996Z,92.29
2018-12-18T01:28:37.984Z,92.35
2018-12-18T01:29:37.999Z,92.29
2018-12-18T01:30:37.962Z,92.18
2018-12-18T01:31:37.950Z,92.39
2018-12-18T01:32:37.942Z,92.39
2018-12-18T01:33:37.931Z,92.14
2018-12-18T01:34:37.944Z,92.39
2018-12-18T01:35:37.909Z,92.35
2018-12-18T01:36:37.900Z,92.35
2018-12-18T01:37:37.887Z,91.97
2018-12-18T01:38:37.901Z,92.03
2018-12-18T01:39:37.863Z,92.14
2018-12-18T01:40:37.854Z,92.45
2018-12-18T01:41:37.843Z,92.08
2018-12-18T01:42:37.834Z,92.24
2018-12-18T01:43:37.848Z,92.60
2018-12-18T01:44:37.809Z,92.35
2018-12-18T01:45:37.802Z,92.45
2018-12-18T01:46:37.790Z,92.35
2018-12-18T01:47:37.777Z,92.03
2018-12-18T01:48:37.792Z,92.45
2018-12-18T01:49:37.757Z,92.14
2018-12-18T01:50:37.747Z,91.72
2018-12-18T01:51:37.735Z,92.03
2018-12-18T01:52:37.724Z,91.83
2018-12-18T01:53:37.741Z,91.06
2018-12-18T01:54:37.703Z,91.62
2018-12-18T01:55:37.691Z,91.72
2018-12-18T01:56:37.681Z,91.41
2018-12-18T01:57:37.670Z,91.20
2018-12-18T01:58:37.683Z,92.14
2018-12-18T01:59:37.648Z,92.03
2018-12-18T02:00:37.638Z,92.03
2018-12-18T02:01:37.627Z,91.93
2018-12-18T02:02:37.614Z,91.83
2018-12-18T02:03:37.630Z,91.72
2018-12-18T02:04:37.594Z,91.89
2018-12-18T02:05:37.582Z,92.35
2018-12-18T02:06:37.574Z,92.10
2018-12-18T02:07:37.562Z,92.45
2018-12-18T02:08:37.576Z,91.93
2018-12-18T02:09:37.540Z,92.10
2018-12-18T02:10:37.528Z,92.20
2018-12-18T02:11:37.519Z,92.10
2018-12-18T02:12:37.508Z,92.10
2018-12-18T02:13:37.521Z,91.93
2018-12-18T02:14:37.485Z,92.41
2018-12-18T02:15:37.475Z,92.35
2018-12-18T02:16:37.463Z,92.66
2018-12-18T02:17:37.452Z,92.41
2018-12-18T02:18:37.467Z,92.20
2018-12-18T02:19:37.431Z,92.24
2018-12-18T02:20:37.420Z,92.24
2018-12-18T02:21:37.410Z,92.30
2018-12-18T02:22:37.398Z,92.41
2018-12-18T02:23:37.413Z,92.30
2018-12-18T02:24:37.377Z,92.30
2018-12-18T02:25:37.366Z,92.24
2018-12-18T02:26:37.357Z,92.51
2018-12-18T02:27:37.345Z,92.55
2018-12-18T02:28:37.360Z,92.35
2018-12-18T02:29:37.324Z,92.24
2018-12-18T02:30:37.314Z,91.93
2018-12-18T02:31:37.300Z,92.55
2018-12-18T02:32:37.290Z,92.41
2018-12-18T02:33:37.308Z,92.35
2018-12-18T02:34:37.269Z,92.51
2018-12-18T02:35:37.260Z,92.41
2018-12-18T02:36:37.246Z,92.03
2018-12-18T02:37:37.236Z,92.30
2018-12-18T02:38:37.250Z,91.99
2018-12-18T02:39:37.216Z,92.30
2018-12-18T02:40:37.204Z,92.51
2018-12-18T02:41:37.193Z,92.51
2018-12-18T02:42:37.182Z,93.24
2018-12-18T02:43:37.197Z,92.51
2018-12-18T02:44:37.174Z,93.24
2018-12-18T02:45:37.149Z,92.61
2018-12-18T02:46:37.143Z,92.72
2018-12-18T02:47:37.128Z,92.82
2018-12-18T02:48:37.141Z,92.61
2018-12-18T02:49:37.107Z,93.41
2018-12-18T02:50:37.094Z,93.41
2018-12-18T02:51:37.084Z,92.82
2018-12-18T02:52:37.073Z,92.61
2018-12-18T02:53:37.088Z,92.82
2018-12-18T02:54:37.054Z,92.82
2018-12-18T02:55:37.041Z,93.03
2018-12-18T02:56:37.030Z,92.72
2018-12-18T02:57:37.019Z,92.78
2018-12-18T02:58:37.033Z,92.88
2018-12-18T02:59:36.997Z,92.78
2018-12-18T03:00:36.986Z,92.82
2018-12-18T03:01:36.974Z,93.10
2018-12-18T03:02:36.965Z,92.88
2018-12-18T03:03:36.981Z,92.78
2018-12-18T03:04:36.946Z,92.61
2018-12-18T03:05:36.932Z,92.36
2018-12-18T03:06:36.920Z,92.57
2018-12-18T03:07:36.909Z,92.68
2018-12-18T03:08:36.923Z,91.95
2018-12-18T03:09:36.890Z,92.47
2018-12-18T03:10:36.877Z,91.95
2018-12-18T03:11:36.866Z,92.26
2018-12-18T03:12:36.855Z,92.36
2018-12-18T03:13:36.871Z,92.36
2018-12-18T03:14:36.836Z,93.10
2018-12-18T03:15:36.826Z,92.57
2018-12-18T03:16:36.812Z,92.53
2018-12-18T03:17:36.801Z,92.57
2018-12-18T03:18:36.831Z,92.74
2018-12-18T03:19:36.785Z,93.20
2018-12-18T03:20:36.771Z,93.51
2018-12-18T03:21:36.759Z,93.51
2018-12-18T03:22:36.748Z,93.62
2018-12-18T03:23:36.766Z,92.94
2018-12-18T03:24:36.726Z,93.16
2018-12-18T03:25:36.719Z,93.16
2018-12-18T03:26:36.708Z,93.57
2018-12-18T03:27:36.693Z,93.82
2018-12-18T03:28:36.707Z,93.78
2018-12-18T03:29:36.671Z,93.88
2018-12-18T03:30:36.685Z,93.62
2018-12-18T03:31:36.650Z,94.20
2018-12-18T03:32:36.665Z,94.34
2018-12-18T03:33:36.655Z,93.93
2018-12-18T03:34:36.620Z,93.93
2018-12-18T03:35:36.606Z,94.03
2018-12-18T03:36:36.595Z,94.76
2018-12-18T03:37:36.584Z,94.55
2018-12-18T03:38:36.598Z,94.55
2018-12-18T03:39:36.566Z,94.65
2018-12-18T03:40:36.552Z,94.55
2018-12-18T03:41:36.541Z,94.55
2018-12-18T03:42:36.531Z,94.55
2018-12-18T03:43:36.544Z,94.61
2018-12-18T03:44:36.509Z,94.82
2018-12-18T03:45:36.499Z,94.24
2018-12-18T03:46:36.492Z,94.76
2018-12-18T03:47:36.479Z,94.55
2018-12-18T03:48:36.489Z,94.51
2018-12-18T03:49:36.457Z,94.30
2018-12-18T03:50:36.447Z,94.40
2018-12-18T03:51:36.436Z,94.45
2018-12-18T03:52:36.425Z,94.61
2018-12-18T03:53:36.440Z,94.20
2018-12-18T03:54:36.402Z,94.34
2018-12-18T03:55:36.395Z,94.96
2018-12-18T03:56:36.382Z,94.86
2018-12-18T03:57:36.370Z,95.38
2018-12-18T03:58:36.384Z,95.28
2018-12-18T03:59:36.352Z,95.48
2018-12-18T04:00:36.338Z,95.38
2018-12-18T04:01:36.330Z,95.17
2018-12-18T04:02:36.317Z,95.17
2018-12-18T04:03:36.330Z,95.38
2018-12-18T04:04:36.359Z,95.48
2018-12-18T04:05:36.283Z,95.38
2018-12-18T04:06:36.275Z,95.38
2018-12-18T04:07:36.262Z,95.28
2018-12-18T04:08:36.281Z,95.28
2018-12-18T04:09:36.241Z,95.48
2018-12-18T04:10:36.235Z,95.38
2018-12-18T04:11:36.219Z,95.34
2018-12-18T04:12:36.212Z,95.03
2018-12-18T04:13:36.223Z,95.13
2018-12-18T04:14:36.190Z,95.34
2018-12-18T04:15:36.183Z,95.23
2018-12-18T04:16:36.165Z,95.23
2018-12-18T04:17:36.157Z,95.54
2018-12-18T04:18:36.171Z,95.13
2018-12-18T04:19:36.136Z,95.23
2018-12-18T04:20:36.137Z,95.23
2018-12-18T04:21:36.117Z,95.07
2018-12-18T04:22:36.103Z,95.44
2018-12-18T04:23:36.117Z,95.44
2018-12-18T04:24:36.083Z,95.34
2018-12-18T04:25:36.072Z,95.44
2018-12-18T04:26:36.061Z,95.54
2018-12-18T04:27:36.050Z,95.54
2018-12-18T04:30:51.873Z,95.44
2018-12-18T04:31:51.863Z,95.75
2018-12-18T04:32:51.886Z,95.34
2018-12-18T04:33:51.840Z,95.75
2018-12-18T04:34:51.836Z,96.17
2018-12-18T04:35:51.819Z,95.69
2018-12-18T04:36:51.809Z,96.06
2018-12-18T04:37:51.796Z,95.75
2018-12-18T04:38:51.810Z,96.27
2018-12-18T04:39:51.776Z,96.11
2018-12-18T04:40:51.765Z,96.58
2018-12-18T04:41:51.756Z,96.21
2018-12-18T04:42:51.744Z,96.27
2018-12-18T04:43:51.759Z,96.37
2018-12-18T04:44:51.723Z,96.58
2018-12-18T04:45:51.712Z,96.79
2018-12-18T04:46:51.701Z,96.89
2018-12-18T04:47:51.691Z,96.27
2018-12-18T04:48:51.721Z,96.48
2018-12-18T04:49:51.670Z,96.79
2018-12-18T04:50:51.663Z,96.37
2018-12-18T04:51:51.650Z,96.79
2018-12-18T04:52:51.639Z,96.69
2018-12-18T04:53:51.626Z,96.79
2018-12-18T04:54:51.644Z,96.37
2018-12-18T04:55:51.608Z,96.89
2018-12-18T04:56:51.595Z,97.20
2018-12-18T04:57:51.585Z,96.69
2018-12-18T04:58:51.578Z,96.73
2018-12-18T04:59:51.590Z,97.35
2018-12-18T05:00:51.551Z,97.00
2018-12-18T05:01:51.543Z,96.58
2018-12-18T05:02:51.531Z,96.79
2018-12-18T05:03:51.523Z,96.58
2018-12-18T05:04:51.549Z,96.69
2018-12-18T05:05:51.503Z,96.69
2018-12-18T05:06:51.489Z,96.37
2018-12-18T05:07:51.479Z,96.69
2018-12-18T05:08:51.471Z,97.00
2018-12-18T05:09:51.458Z,96.48
2018-12-18T05:10:51.472Z,96.69
2018-12-18T05:11:51.441Z,96.48
2018-12-18T05:12:51.428Z,96.79
2018-12-18T05:13:51.415Z,96.37
2018-12-18T05:14:51.404Z,96.44
2018-12-18T05:15:51.416Z,96.69
2018-12-18T05:16:51.385Z,96.79
2018-12-18T05:17:51.371Z,96.48
2018-12-18T05:18:51.361Z,96.58
2018-12-18T05:19:51.351Z,97.20
2018-12-18T05:20:51.375Z,96.79
2018-12-18T05:21:51.330Z,96.58
2018-12-18T05:22:51.319Z,96.69
2018-12-18T05:23:51.307Z,96.48
2018-12-18T05:24:51.301Z,96.69
2018-12-18T05:25:51.288Z,96.58
2018-12-18T05:26:51.302Z,96.79
2018-12-18T05:27:51.266Z,96.79
2018-12-18T05:28:51.254Z,96.79
2018-12-18T05:29:51.245Z,96.48
2018-12-18T05:30:51.253Z,96.37
2018-12-18T05:31:51.248Z,97.41
2018-12-18T05:32:51.213Z,97.10
2018-12-18T05:33:51.201Z,96.37
2018-12-18T05:34:56.534Z,96.37
2018-12-18T05:35:52.188Z,96.37
2018-12-18T05:36:51.206Z,96.58
2018-12-18T05:37:51.158Z,96.48
2018-12-18T05:38:51.149Z,96.37
2018-12-18T05:39:51.137Z,96.75
2018-12-18T05:40:51.126Z,97.16
2018-12-18T05:41:51.115Z,96.95
2018-12-18T05:42:51.128Z,97.10
2018-12-18T05:43:51.094Z,96.64
2018-12-18T05:44:51.085Z,96.58
2018-12-18T05:45:51.071Z,96.58
2018-12-18T05:46:51.063Z,96.64
2018-12-18T05:47:51.074Z,96.69
2018-12-18T05:48:51.041Z,97.00
2018-12-18T05:49:51.030Z,96.79
2018-12-18T05:50:51.018Z,96.89
2018-12-18T05:51:51.008Z,96.75
2018-12-18T05:52:51.036Z,96.85
2018-12-18T05:53:50.986Z,96.64
2018-12-18T05:54:50.976Z,96.23
2018-12-18T05:55:50.976Z,96.54
2018-12-18T05:56:50.954Z,96.12
2018-12-18T05:57:50.945Z,96.12
2018-12-18T05:58:50.959Z,96.54
2018-12-18T05:59:50.921Z,96.23
2018-12-18T06:00:50.920Z,96.44
2018-12-18T06:01:50.905Z,96.44
2018-12-18T06:02:50.887Z,96.44
2018-12-18T06:03:50.906Z,96.17
2018-12-18T06:04:50.876Z,95.92
2018-12-18T06:05:50.860Z,96.48
2018-12-18T06:06:50.844Z,95.50
2018-12-18T06:07:50.837Z,96.17
2018-12-18T06:08:50.859Z,96.02
2018-12-18T06:09:50.811Z,95.81
2018-12-18T06:10:50.803Z,95.71
2018-12-18T06:11:50.791Z,95.61
2018-12-18T06:12:50.785Z,95.71
2018-12-18T06:13:50.770Z,95.50
2018-12-18T06:14:50.783Z,95.81
2018-12-18T06:15:50.747Z,95.61
2018-12-18T06:16:50.737Z,95.92
2018-12-18T06:17:50.727Z,95.98
2018-12-18T06:18:50.720Z,95.98
2018-12-18T06:19:50.733Z,96.23
2018-12-18T06:20:50.704Z,96.12
2018-12-18T06:21:50.687Z,95.50
2018-12-18T06:22:50.673Z,95.81
2018-12-18T06:23:50.679Z,95.50
2018-12-18T06:24:50.687Z,95.56
2018-12-18T06:25:50.640Z,95.40
2018-12-18T06:26:50.630Z,95.46
2018-12-18T06:27:50.620Z,95.50
2018-12-18T06:28:50.620Z,95.19
2018-12-18T06:29:50.598Z,95.40
2018-12-18T06:30:50.612Z,95.15
2018-12-18T06:31:50.577Z,95.36
2018-12-18T06:32:50.565Z,95.09
2018-12-18T06:33:50.557Z,95.04
2018-12-18T06:34:50.544Z,95.19
2018-12-18T06:35:50.560Z,95.29
2018-12-18T06:36:50.523Z,95.15
2018-12-18T06:37:50.513Z,95.15
2018-12-18T06:38:50.504Z,95.29
2018-12-18T06:39:50.491Z,94.94
2018-12-18T06:40:50.504Z,95.19
2018-12-18T06:41:50.470Z,94.84
2018-12-18T06:42:50.458Z,95.15
2018-12-18T06:43:50.450Z,94.84
2018-12-18T06:44:50.438Z,95.25
2018-12-18T06:45:50.453Z,95.36
2018-12-18T06:46:50.418Z,95.04
2018-12-18T06:47:50.407Z,95.15
2018-12-18T06:48:50.395Z,95.15
2018-12-18T06:49:50.384Z,95.15
2018-12-18T06:50:50.415Z,95.15
2018-12-18T06:51:50.362Z,95.36
2018-12-18T06:52:50.353Z,95.46
2018-12-18T06:53:50.341Z,95.25
2018-12-18T06:54:50.330Z,95.25
2018-12-18T06:55:50.318Z,95.46
2018-12-18T06:56:50.334Z,95.04
2018-12-18T06:57:50.299Z,94.94
2018-12-18T06:58:50.289Z,95.29
2018-12-18T06:59:50.277Z,94.94
2018-12-18T07:00:50.268Z,95.19
2018-12-18T07:01:50.280Z,95.04
2018-12-18T07:02:50.245Z,95.04
2018-12-18T07:03:50.233Z,95.25
2018-12-18T07:04:50.223Z,95.46
2018-12-18T07:05:50.215Z,95.15
2018-12-18T07:06:50.236Z,95.04
2018-12-18T07:07:50.191Z,95.15
2018-12-18T07:08:50.189Z,95.46
2018-12-18T07:09:50.172Z,95.56
2018-12-18T07:10:50.159Z,95.15
2018-12-18T07:11:50.149Z,95.46
2018-12-18T07:12:50.165Z,95.15
2018-12-18T07:13:50.129Z,94.94
2018-12-18T07:14:50.116Z,95.04
2018-12-18T07:15:50.107Z,95.15
2018-12-18T07:16:50.097Z,95.36
2018-12-18T07:17:50.111Z,95.36
2018-12-18T07:18:50.079Z,95.25
2018-12-18T07:19:50.063Z,95.36
2018-12-18T07:20:50.053Z,95.36
2018-12-18T07:21:50.043Z,95.36
2018-12-18T07:22:50.068Z,95.25
2018-12-18T07:23:50.022Z,95.15
2018-12-18T07:24:50.013Z,95.15
2018-12-18T07:25:50.003Z,95.15
2018-12-18T07:26:49.993Z,95.04
2018-12-18T07:27:49.979Z,95.04
2018-12-18T07:28:50.070Z,95.56
2018-12-18T07:29:49.958Z,95.25
2018-12-18T07:30:49.947Z,95.25
2018-12-18T07:31:49.937Z,95.15
2018-12-18T07:32:49.927Z,95.56
2018-12-18T07:33:49.940Z,95.15
2018-12-18T07:34:49.905Z,95.25
2018-12-18T07:35:49.893Z,94.94
2018-12-18T07:36:49.883Z,94.84
2018-12-18T07:37:49.870Z,94.89
2018-12-18T07:38:49.900Z,94.63
2018-12-18T07:39:49.850Z,94.48
2018-12-18T07:40:49.839Z,94.27
2018-12-18T07:41:49.828Z,94.27
2018-12-18T07:42:49.818Z,94.37
2018-12-18T07:43:49.808Z,94.42
2018-12-18T07:44:49.820Z,94.42
2018-12-18T07:45:49.786Z,93.90
2018-12-18T07:46:49.796Z,94.27
2018-12-18T07:47:49.765Z,94.32
2018-12-18T07:48:49.752Z,94.53
2018-12-18T07:49:49.765Z,94.37
2018-12-18T07:50:49.732Z,94.17
2018-12-18T07:51:49.722Z,94.06
2018-12-18T07:52:49.711Z,93.96
2018-12-18T07:53:49.701Z,93.85
2018-12-18T07:54:49.743Z,94.01
2018-12-18T07:55:49.677Z,94.06
2018-12-18T07:56:49.669Z,94.17
2018-12-18T07:57:49.658Z,94.17
2018-12-18T07:58:49.644Z,93.85
2018-12-18T07:59:49.635Z,93.85
2018-12-18T08:00:49.647Z,93.65
2018-12-18T08:01:49.614Z,93.54
2018-12-18T08:02:49.602Z,93.65
2018-12-18T08:03:49.591Z,93.54
2018-12-18T08:04:49.583Z,93.65
2018-12-18T08:05:49.594Z,93.38
2018-12-18T08:06:49.562Z,93.33
2018-12-18T08:07:49.548Z,93.54
2018-12-18T08:08:49.540Z,93.54
2018-12-18T08:09:49.530Z,93.54
2018-12-18T08:10:49.541Z,93.33
2018-12-18T08:11:49.531Z,93.54
2018-12-18T08:12:49.495Z,93.75
2018-12-18T08:13:49.485Z,93.33
2018-12-18T08:14:49.474Z,93.65
2018-12-18T08:15:49.488Z,93.75
2018-12-18T08:16:49.452Z,93.65
2018-12-18T08:17:49.440Z,93.44
2018-12-18T08:18:49.430Z,93.44
2018-12-18T08:19:49.418Z,93.85
2018-12-18T08:20:49.483Z,93.33
2018-12-18T08:21:49.400Z,93.65
2018-12-18T08:22:49.385Z,93.54
2018-12-18T08:23:49.374Z,93.75
2018-12-18T08:24:49.366Z,93.65
2018-12-18T08:25:49.352Z,93.44
2018-12-18T08:26:49.549Z,93.33
2018-12-18T08:27:49.332Z,93.33
2018-12-18T08:28:49.319Z,93.65
2018-12-18T08:29:49.309Z,93.33
2018-12-18T08:30:49.301Z,93.44
2018-12-18T08:31:49.358Z,93.54
2018-12-18T08:32:49.278Z,93.33
2018-12-18T08:33:49.276Z,93.65
2018-12-18T08:34:49.286Z,93.65
2018-12-18T08:35:49.263Z,93.65
2018-12-18T08:36:49.266Z,93.54
2018-12-18T08:37:49.222Z,93.33
2018-12-18T08:38:49.209Z,93.54
2018-12-18T08:39:49.201Z,93.75
2018-12-18T08:40:49.186Z,93.44
2018-12-18T08:41:49.176Z,93.02
2018-12-18T08:42:49.190Z,92.93
2018-12-18T08:43:49.157Z,93.13
2018-12-18T08:44:49.145Z,93.40
2018-12-18T08:45:49.131Z,93.23
2018-12-18T08:46:49.120Z,93.23
2018-12-18T08:47:49.149Z,93.13
2018-12-18T08:48:49.098Z,92.78
2018-12-18T08:49:49.087Z,93.33
2018-12-18T08:50:49.075Z,92.68
2018-12-18T08:51:49.067Z,92.36
2018-12-18T08:52:49.088Z,92.88
2018-12-18T08:53:49.043Z,92.88
2018-12-18T08:54:49.032Z,92.98
2018-12-18T08:55:49.021Z,92.88
2018-12-18T08:56:49.010Z,92.57
2018-12-18T08:57:49.003Z,92.57
2018-12-18T08:58:49.014Z,92.47
2018-12-18T08:59:48.977Z,93.19
2018-12-18T09:00:48.968Z,93.19
2018-12-18T09:01:48.957Z,93.29
2018-12-18T09:02:48.943Z,93.08
2018-12-18T09:03:49.008Z,92.47
2018-12-18T09:04:49.001Z,92.16
2018-12-18T09:05:48.908Z,92.05
2018-12-18T09:06:48.897Z,92.26
2018-12-18T09:07:48.913Z,92.98
2018-12-18T09:08:49.028Z,91.95
2018-12-18T09:09:48.864Z,92.05
2018-12-18T09:10:48.854Z,92.05
2018-12-18T09:11:48.843Z,92.05
2018-12-18T09:12:48.831Z,92.88
2018-12-18T09:13:48.821Z,92.26
2018-12-18T09:14:48.835Z,92.22
2018-12-18T09:15:48.798Z,91.95
2018-12-18T09:16:48.789Z,91.39
2018-12-18T09:17:48.775Z,91.60
2018-12-18T09:18:48.766Z,91.70
2018-12-18T09:19:48.779Z,91.49
2018-12-18T09:20:48.742Z,91.70
2018-12-18T09:21:48.730Z,91.28
2018-12-18T09:22:48.754Z,91.28
2018-12-18T09:23:48.710Z,91.28
2018-12-18T09:24:48.735Z,91.39
2018-12-18T09:25:48.688Z,91.70
2018-12-18T09:26:48.685Z,91.60
2018-12-18T09:27:48.665Z,91.55
2018-12-18T09:28:48.655Z,91.60
2018-12-18T09:29:48.642Z,91.55
2018-12-18T09:30:48.656Z,91.08
2018-12-18T09:31:48.622Z,91.24
2018-12-18T09:32:48.611Z,91.03
2018-12-18T09:33:48.598Z,90.93
2018-12-18T09:34:48.623Z,90.87
2018-12-18T09:35:49.833Z,91.35
2018-12-18T09:36:48.566Z,91.03
2018-12-18T09:37:48.565Z,90.83
2018-12-18T09:38:48.546Z,91.03
2018-12-18T09:39:48.567Z,90.83
2018-12-18T09:40:48.562Z,90.41
2018-12-18T09:41:48.568Z,90.20
2018-12-18T09:42:48.502Z,90.10
2018-12-18T09:43:48.491Z,89.89
2018-12-18T09:44:48.483Z,89.65
2018-12-18T09:45:48.480Z,89.34
2018-12-18T09:46:48.484Z,89.75
2018-12-18T09:47:48.449Z,90.00
2018-12-18T09:48:48.438Z,89.69
2018-12-18T09:49:48.433Z,89.89
2018-12-18T09:50:48.418Z,90.00
2018-12-18T09:51:48.431Z,90.00
2018-12-18T09:52:48.396Z,89.89
2018-12-18T09:53:48.387Z,89.69
2018-12-18T09:54:48.398Z,89.86
2018-12-18T09:55:48.367Z,89.75
2018-12-18T09:56:48.354Z,89.65
2018-12-18T09:57:48.343Z,90.10
2018-12-18T09:58:48.333Z,89.86
2018-12-18T09:59:48.345Z,89.75
2018-12-18T10:00:48.309Z,90.06
2018-12-18T10:01:48.300Z,89.71
2018-12-18T10:02:48.291Z,89.34
2018-12-18T10:03:48.279Z,89.19
2018-12-18T10:04:48.293Z,89.13
2018-12-18T10:05:48.257Z,89.34
2018-12-18T10:06:48.252Z,89.65
2018-12-18T10:07:48.235Z,89.75
2018-12-18T10:08:48.243Z,89.75
2018-12-18T10:09:48.238Z,89.54
2018-12-18T10:10:48.213Z,89.61
2018-12-18T10:11:48.197Z,89.29
2018-12-18T10:12:48.183Z,88.88
2018-12-18T10:13:48.192Z,89.29
2018-12-18T10:14:48.194Z,88.78
2018-12-18T10:15:48.149Z,88.57
2018-12-18T10:16:48.153Z,88.46
2018-12-18T10:17:48.136Z,88.57
2018-12-18T10:18:48.950Z,88.57
2018-12-18T10:19:48.106Z,88.67
2018-12-18T10:20:48.096Z,88.98
2018-12-18T10:21:48.085Z,88.88
2018-12-18T10:22:48.074Z,88.88
2018-12-18T10:23:48.087Z,87.95
2018-12-18T10:24:48.052Z,87.95
2018-12-18T10:25:48.043Z,88.16
2018-12-18T10:26:48.052Z,88.26
2018-12-18T10:27:48.019Z,88.78
2018-12-18T10:28:48.038Z,88.26
2018-12-18T10:29:48.000Z,88.36
2018-12-18T10:30:47.988Z,87.95
2018-12-18T10:31:47.977Z,87.95
2018-12-18T10:32:47.969Z,88.06
2018-12-18T10:33:48.175Z,88.36
2018-12-18T10:34:48.022Z,88.98
2018-12-18T10:35:48.048Z,88.88
2018-12-18T10:36:48.993Z,88.26
2018-12-18T10:37:48.030Z,88.12
2018-12-18T10:38:48.091Z,88.06
2018-12-18T10:39:48.497Z,87.70
2018-12-18T10:40:48.654Z,87.85
2018-12-18T10:41:47.951Z,87.81
2018-12-18T10:42:48.495Z,87.49
2018-12-18T10:43:47.878Z,87.60
2018-12-18T10:44:47.842Z,87.39
2018-12-18T10:45:47.829Z,87.49
2018-12-18T10:46:47.821Z,87.18
2018-12-18T10:47:47.806Z,87.39
2018-12-18T10:48:47.849Z,87.29
2018-12-18T10:49:47.800Z,87.04
2018-12-18T10:50:47.786Z,87.49
2018-12-18T10:51:47.766Z,87.49
2018-12-18T10:52:47.752Z,87.49
2018-12-18T10:53:47.784Z,87.49
2018-12-18T10:54:47.734Z,87.81
2018-12-18T10:55:47.719Z,87.39
2018-12-18T10:56:47.709Z,87.29
2018-12-18T10:57:47.702Z,87.70
2018-12-18T10:58:47.723Z,87.25
2018-12-18T10:59:47.721Z,86.52
2018-12-18T11:00:47.676Z,87.15
2018-12-18T11:01:47.658Z,87.29
2018-12-18T11:02:47.659Z,87.49
2018-12-18T11:03:47.654Z,87.49
2018-12-18T11:04:47.621Z,87.04
2018-12-18T11:05:47.613Z,86.83
2018-12-18T11:06:47.598Z,86.94
2018-12-18T11:07:47.594Z,87.18
2018-12-18T11:08:47.603Z,86.73
2018-12-18T11:09:47.574Z,86.98
2018-12-18T11:10:47.569Z,87.04
2018-12-18T11:11:47.542Z,86.94
2018-12-18T11:12:47.563Z,86.83
2018-12-18T11:13:47.547Z,87.25
2018-12-18T11:14:47.510Z,86.73
2018-12-18T11:15:47.505Z,86.73
2018-12-18T11:16:47.493Z,86.32
2018-12-18T11:17:47.488Z,86.83
2018-12-18T11:18:47.492Z,86.63
2018-12-18T11:19:47.460Z,86.73
2018-12-18T11:20:47.444Z,86.42
2018-12-18T11:21:47.433Z,86.73
2018-12-18T11:22:47.428Z,86.73
2018-12-18T11:23:47.437Z,86.21
2018-12-18T11:24:47.399Z,86.32
2018-12-18T11:25:47.436Z,86.21
2018-12-18T11:26:47.376Z,86.38
2018-12-18T11:27:47.368Z,85.97
2018-12-18T11:28:47.382Z,86.49
2018-12-18T11:29:47.345Z,85.86
2018-12-18T11:30:47.343Z,85.41
2018-12-18T11:31:47.321Z,85.21
2018-12-18T11:32:47.313Z,85.00
2018-12-18T11:33:47.324Z,84.48
2018-12-18T11:34:47.289Z,84.38
2018-12-18T11:35:47.277Z,85.10
2018-12-18T11:36:47.266Z,84.75
2018-12-18T11:37:47.256Z,84.55
2018-12-18T11:38:47.270Z,84.44
2018-12-18T11:39:47.233Z,83.68
2018-12-18T11:40:47.222Z,82.61
2018-12-18T11:41:47.211Z,81.99
2018-12-18T11:42:47.199Z,81.17
2018-12-18T11:43:47.214Z,81.27
2018-12-18T11:44:47.178Z,81.07
2018-12-18T11:45:47.168Z,80.20
2018-12-18T11:46:47.157Z,79.55
2018-12-18T11:47:47.146Z,79.90
2018-12-18T11:48:47.160Z,80.30
2018-12-18T11:49:47.124Z,80.34
2018-12-18T11:50:47.113Z,80.55
2018-12-18T11:51:47.101Z,81.07
2018-12-18T11:52:47.090Z,81.07
2018-12-18T11:53:47.105Z,80.44
2018-12-18T11:54:47.069Z,81.17
2018-12-18T11:55:47.059Z,81.17
2018-12-18T11:56:47.047Z,81.17
2018-12-18T11:57:47.038Z,81.62
2018-12-18T11:58:47.051Z,81.82
2018-12-18T11:59:47.027Z,82.24
2018-12-18T12:00:47.003Z,82.34
2018-12-18T12:01:46.995Z,81.93
2018-12-18T12:02:46.983Z,82.59
2018-12-18T12:03:46.997Z,82.89
2018-12-18T12:04:46.960Z,82.48
2018-12-18T12:05:46.951Z,82.59
2018-12-18T12:06:46.943Z,83.10
2018-12-18T12:07:46.930Z,83.34
2018-12-18T12:08:46.942Z,83.51
2018-12-18T12:09:46.907Z,83.62
2018-12-18T12:10:46.897Z,83.65
2018-12-18T12:11:46.886Z,83.93
2018-12-18T12:12:46.877Z,83.86
2018-12-18T12:13:46.895Z,83.72
2018-12-18T12:14:46.854Z,83.83
2018-12-18T12:15:46.843Z,83.86
2018-12-18T12:16:46.834Z,83.97
2018-12-18T12:17:46.821Z,83.97
2018-12-18T12:18:46.835Z,83.86
2018-12-18T12:19:46.800Z,83.97
2018-12-18T12:20:46.791Z,83.86
2018-12-18T12:21:46.780Z,83.86
2018-12-18T12:22:46.768Z,83.97
2018-12-18T12:23:46.781Z,83.86
2018-12-18T12:24:46.748Z,83.55
2018-12-18T12:25:46.736Z,83.51
2018-12-18T12:26:46.726Z,83.20
2018-12-18T12:27:46.714Z,82.75
2018-12-18T12:28:46.728Z,81.51
2018-12-18T12:29:46.692Z,82.30
2018-12-18T12:30:46.682Z,81.79
2018-12-18T12:31:46.674Z,81.79
2018-12-18T12:32:46.660Z,81.37
2018-12-18T12:33:46.675Z,81.37
2018-12-18T12:34:46.641Z,81.37
2018-12-18T12:35:46.628Z,81.27
2018-12-18T12:36:46.615Z,81.17
2018-12-18T12:37:46.607Z,80.96
2018-12-18T12:38:46.619Z,81.89
2018-12-18T12:39:46.584Z,80.65
2018-12-18T12:40:46.573Z,81.48
2018-12-18T12:41:46.561Z,81.68
2018-12-18T12:42:46.553Z,81.17
2018-12-18T12:43:46.563Z,81.48
2018-12-18T12:44:46.529Z,81.23
2018-12-18T12:45:46.518Z,80.76
2018-12-18T12:46:46.505Z,80.96
2018-12-18T12:47:46.492Z,81.17
2018-12-18T12:48:46.507Z,80.86
2018-12-18T12:49:46.471Z,81.62
2018-12-18T12:50:46.462Z,81.27
2018-12-18T12:51:46.449Z,81.51
2018-12-18T12:52:46.442Z,81.58
2018-12-18T12:53:46.456Z,81.58
2018-12-18T12:54:46.415Z,81.27